createdAt,value
2018-09-20T00:02:05.188Z,2.30
2018-09-20T00:04:34.164Z,3.00
2018-09-20T00:07:03.074Z,2.20
2018-09-20T00:09:32.037Z,2.80
2018-09-20T00:12:00.965Z,2.53
2018-09-20T00:14:29.922Z,2.50
2018-09-20T00:16:58.847Z,2.63
2018-09-20T00:19:27.793Z,2.00
2018-09-20T00:21:56.732Z,3.30
2018-09-20T00:24:25.666Z,2.60
2018-09-20T00:26:54.598Z,1.97
2018-09-20T00:29:23.566Z,2.27
2018-09-20T00:31:52.638Z,2.20
2018-09-20T00:34:21.627Z,2.30
2018-09-20T00:36:50.593Z,2.40
2018-09-20T00:39:19.534Z,2.80
2018-09-20T00:41:48.530Z,2.60
2018-09-20T00:44:17.474Z,2.17
2018-09-20T00:46:46.459Z,2.03
2018-09-20T00:49:15.370Z,2.60
2018-09-20T00:51:44.325Z,2.50
2018-09-20T00:54:13.257Z,2.60
2018-09-20T00:56:42.257Z,2.37
2018-09-20T00:59:11.210Z,2.43
2018-09-20T01:01:40.191Z,2.50
2018-09-20T01:04:09.128Z,2.00
2018-09-20T01:06:38.116Z,2.40
2018-09-20T01:09:10.132Z,2.37
2018-09-20T01:11:39.376Z,2.40
2018-09-20T01:14:08.366Z,2.47
2018-09-20T01:16:37.398Z,1.93
2018-09-20T01:19:06.386Z,2.40
2018-09-20T01:21:35.355Z,1.83
2018-09-20T01:24:04.297Z,2.53
2018-09-20T01:26:33.274Z,2.87
2018-09-20T01:29:02.175Z,2.50
2018-09-20T01:31:31.165Z,2.50
2018-09-20T01:34:00.075Z,2.33
2018-09-20T01:36:29.026Z,2.80
2018-09-20T01:38:57.938Z,1.90
2018-09-20T01:41:26.883Z,2.87
2018-09-20T01:43:55.784Z,2.23
2018-09-20T01:46:24.734Z,2.70
2018-09-20T01:48:53.616Z,2.80
2018-09-20T01:51:22.566Z,2.27
2018-09-20T01:53:51.446Z,2.00
2018-09-20T01:56:20.390Z,2.00
2018-09-20T01:58:49.306Z,2.57
2018-09-20T02:01:18.286Z,2.40
2018-09-20T02:03:47.217Z,2.43
2018-09-20T02:06:16.178Z,2.03
2018-09-20T02:08:45.166Z,2.90
2018-09-20T02:11:14.107Z,2.20
2018-09-20T02:13:43.006Z,2.23
2018-09-20T02:16:11.985Z,1.90
2018-09-20T02:18:40.922Z,2.20
2018-09-20T02:21:09.893Z,2.37
2018-09-20T02:23:38.806Z,2.10
2018-09-20T02:26:07.746Z,2.30
2018-09-20T02:28:36.653Z,2.33
2018-09-20T02:31:05.643Z,2.40
2018-09-20T02:33:34.590Z,2.13
2018-09-20T02:36:03.526Z,1.80
2018-09-20T02:38:32.538Z,2.43
2018-09-20T02:41:01.474Z,3.30
2018-09-20T02:43:30.374Z,2.00
2018-09-20T02:45:59.334Z,1.93
2018-09-20T02:48:28.263Z,2.03
2018-09-20T02:50:57.195Z,2.20
2018-09-20T02:53:26.118Z,1.87
2018-09-20T02:55:55.117Z,2.07
2018-09-20T02:58:24.006Z,2.30
2018-09-20T03:00:52.924Z,2.33
2018-09-20T03:03:21.879Z,2.37
2018-09-20T03:05:50.794Z,2.27
2018-09-20T03:08:19.756Z,1.80
2018-09-20T03:10:48.654Z,1.57
2018-09-20T03:13:17.588Z,2.40
2018-09-20T03:15:46.496Z,1.93
2018-09-20T03:18:15.430Z,1.80
2018-09-20T03:20:44.320Z,2.63
2018-09-20T03:23:13.396Z,2.00
2018-09-20T03:25:42.281Z,2.37
2018-09-20T03:28:11.226Z,2.80
2018-09-20T03:30:40.462Z,2.60
2018-09-20T03:33:09.314Z,1.87
2018-09-20T03:35:38.263Z,2.70
2018-09-20T03:38:07.247Z,2.00
2018-09-20T03:40:36.150Z,1.80
2018-09-20T03:43:05.118Z,1.70
2018-09-20T03:45:34.065Z,2.10
2018-09-20T03:48:03.022Z,1.90
2018-09-20T03:50:31.942Z,2.27
2018-09-20T03:53:00.936Z,2.20
2018-09-20T03:55:29.896Z,1.97
2018-09-20T03:57:58.852Z,1.77
2018-09-20T04:00:27.788Z,1.83
2018-09-20T04:02:56.746Z,2.13
2018-09-20T04:05:25.741Z,2.33
2018-09-20T04:07:54.715Z,2.50
2018-09-20T04:10:23.636Z,2.80
2018-09-20T04:12:52.709Z,1.90
2018-09-20T04:15:21.626Z,1.90
2018-09-20T04:17:50.634Z,3.03
2018-09-20T04:20:19.565Z,2.27
2018-09-20T04:22:48.457Z,2.00
2018-09-20T04:25:17.431Z,2.47
2018-09-20T04:27:46.425Z,1.80
2018-09-20T04:30:15.398Z,2.20
2018-09-20T04:32:44.301Z,1.93
2018-09-20T04:35:13.225Z,2.37
2018-09-20T04:37:42.707Z,2.37
2018-09-20T04:40:11.702Z,3.40
2018-09-20T04:42:40.597Z,3.00
2018-09-20T04:45:09.639Z,2.37
2018-09-20T04:47:38.594Z,2.50
2018-09-20T04:50:08.086Z,2.27
2018-09-20T04:52:37.191Z,2.33
2018-09-20T04:55:06.851Z,1.87
2018-09-20T04:57:35.787Z,1.97
2018-09-20T05:00:04.786Z,2.63
2018-09-20T05:02:33.974Z,1.80
2018-09-20T05:05:02.926Z,2.43
2018-09-20T05:07:31.828Z,2.70
2018-09-20T05:10:00.777Z,2.03
2018-09-20T05:12:29.685Z,2.00
2018-09-20T05:14:58.666Z,2.60
2018-09-20T05:17:27.574Z,2.67
2018-09-20T05:19:56.515Z,3.80
2018-09-20T05:22:25.535Z,2.80
2018-09-20T05:24:54.473Z,2.60
2018-09-20T05:27:23.367Z,2.97
2018-09-20T05:29:52.301Z,2.77
2018-09-20T05:32:21.216Z,2.67
2018-09-20T05:34:50.277Z,2.67
2018-09-20T05:37:19.218Z,2.03
2018-09-20T05:39:48.194Z,2.90
2018-09-20T05:42:17.111Z,2.60
2018-09-20T05:44:46.135Z,2.33
2018-09-20T05:47:15.203Z,3.03
2018-09-20T05:49:44.134Z,2.20
2018-09-20T05:52:13.131Z,2.40
2018-09-20T05:54:42.081Z,2.80
2018-09-20T05:57:11.037Z,1.30
2018-09-20T05:59:39.954Z,2.37
2018-09-20T06:02:08.949Z,3.37
2018-09-20T06:04:37.881Z,2.90
2018-09-20T06:07:06.844Z,2.37
2018-09-20T06:09:35.787Z,2.67
2018-09-20T06:12:04.763Z,2.30
2018-09-20T06:14:33.707Z,2.67
2018-09-20T06:17:02.695Z,2.17
2018-09-20T06:19:31.620Z,2.07
2018-09-20T06:22:00.578Z,2.30
2018-09-20T06:25:00.922Z,2.53
2018-09-20T06:27:29.920Z,2.60
2018-09-20T06:29:58.866Z,3.07
2018-09-20T06:32:27.917Z,1.33
2018-09-20T06:34:56.901Z,2.10
2018-09-20T06:37:25.827Z,3.27
2018-09-20T06:39:54.748Z,2.40
2018-09-20T06:42:23.716Z,2.73
2018-09-20T06:44:52.709Z,2.83
2018-09-20T06:47:21.670Z,2.67
2018-09-20T06:49:50.607Z,2.60
2018-09-20T06:52:19.590Z,2.53
2018-09-20T06:54:48.527Z,1.80
2018-09-20T06:57:17.482Z,2.17
2018-09-20T06:59:46.526Z,1.80
2018-09-20T07:02:15.500Z,2.73
2018-09-20T07:04:44.430Z,3.20
2018-09-20T07:07:13.447Z,3.33
2018-09-20T07:09:42.426Z,2.90
2018-09-20T07:12:11.396Z,2.10
2018-09-20T07:14:40.306Z,2.87
2018-09-20T07:17:09.282Z,2.70
2018-09-20T07:19:38.238Z,2.67
2018-09-20T07:22:07.201Z,2.50
2018-09-20T07:24:36.122Z,2.60
2018-09-20T07:27:05.155Z,2.63
2018-09-20T07:29:34.099Z,2.60
2018-09-20T07:32:03.205Z,3.10
2018-09-20T07:34:32.185Z,2.13
2018-09-20T07:37:01.237Z,2.40
2018-09-20T07:39:30.183Z,2.37
2018-09-20T07:41:59.137Z,2.40
2018-09-20T07:44:28.041Z,2.30
2018-09-20T07:46:57.027Z,2.07
2018-09-20T07:49:25.966Z,2.03
2018-09-20T07:51:54.961Z,2.97
2018-09-20T07:54:23.922Z,1.80
2018-09-20T07:56:52.944Z,2.07
2018-09-20T07:59:21.941Z,3.87
2018-09-20T08:01:50.950Z,2.13
2018-09-20T08:04:19.931Z,2.50
2018-09-20T08:06:48.957Z,1.90
2018-09-20T08:09:17.921Z,2.13
2018-09-20T08:11:46.849Z,2.27
2018-09-20T08:14:15.848Z,2.20
2018-09-20T08:16:44.764Z,2.43
2018-09-20T08:19:13.727Z,2.30
2018-09-20T08:21:42.760Z,2.20
2018-09-20T08:24:11.687Z,1.93
2018-09-20T08:26:40.622Z,2.33
2018-09-20T08:29:09.598Z,1.80
2018-09-20T08:31:38.510Z,2.40
2018-09-20T08:34:07.693Z,2.17
2018-09-20T08:36:36.585Z,1.83
2018-09-20T08:39:08.895Z,2.13
2018-09-20T08:41:38.268Z,1.67
2018-09-20T08:44:08.018Z,1.50
2018-09-20T08:46:36.894Z,1.80
2018-09-20T08:49:05.841Z,3.10
2018-09-20T08:51:34.810Z,1.90
2018-09-20T08:54:03.738Z,1.90
2018-09-20T08:56:32.629Z,1.90
2018-09-20T08:59:01.594Z,1.90
2018-09-20T09:01:30.529Z,1.60
2018-09-20T09:03:59.489Z,1.80
2018-09-20T09:06:28.365Z,2.10
2018-09-20T09:08:57.390Z,2.10
2018-09-20T09:11:26.278Z,2.00
2018-09-20T09:13:55.212Z,1.70
2018-09-20T09:16:24.120Z,1.67
2018-09-20T09:18:53.110Z,2.07
2018-09-20T09:21:22.126Z,2.03
2018-09-20T09:23:51.046Z,1.63
2018-09-20T09:26:19.938Z,1.67
2018-09-20T09:28:49.000Z,1.30
2018-09-20T09:31:17.938Z,1.13
2018-09-20T09:33:47.064Z,1.20
2018-09-20T09:36:15.957Z,1.50
2018-09-20T09:38:44.900Z,1.43
2018-09-20T09:41:13.805Z,1.30
2018-09-20T09:43:42.763Z,1.53
2018-09-20T09:46:11.692Z,1.40
2018-09-20T09:48:40.929Z,1.43
2018-09-20T09:51:10.061Z,1.47
2018-09-20T09:53:39.090Z,1.47
2018-09-20T09:56:08.010Z,1.40
2018-09-20T09:58:36.898Z,1.67
2018-09-20T10:01:05.851Z,1.60
2018-09-20T10:03:34.717Z,1.43
2018-09-20T10:06:03.690Z,2.10
2018-09-20T10:08:32.581Z,1.40
2018-09-20T10:11:01.618Z,2.30
2018-09-20T10:13:30.604Z,1.67
2018-09-20T10:15:59.517Z,1.50
2018-09-20T10:18:28.405Z,1.70
2018-09-20T10:20:57.338Z,1.70
2018-09-20T10:23:26.278Z,1.50
2018-09-20T10:25:55.218Z,1.43
2018-09-20T10:28:24.120Z,1.00
2018-09-20T10:30:53.158Z,1.27
2018-09-20T10:33:22.156Z,1.40
2018-09-20T10:35:51.149Z,1.10
2018-09-20T10:38:20.107Z,1.40
2018-09-20T10:40:49.089Z,1.53
2018-09-20T10:43:18.030Z,1.33
2018-09-20T10:45:46.977Z,1.43
2018-09-20T10:48:15.902Z,1.20
2018-09-20T10:50:44.873Z,1.60
2018-09-20T10:53:13.804Z,1.83
2018-09-20T10:55:42.774Z,1.13
2018-09-20T10:58:11.706Z,1.20
2018-09-20T11:00:40.690Z,1.10
2018-09-20T11:03:09.639Z,1.27
2018-09-20T11:05:38.610Z,1.20
2018-09-20T11:08:07.548Z,1.70
2018-09-20T11:10:36.544Z,1.33
2018-09-20T11:13:05.488Z,1.47
2018-09-20T11:15:34.486Z,1.40
2018-09-20T11:18:03.422Z,1.07
2018-09-20T11:20:32.425Z,1.70
2018-09-20T11:23:01.390Z,1.17
2018-09-20T11:25:30.302Z,1.97
2018-09-20T11:27:59.280Z,1.17
2018-09-20T11:30:28.232Z,1.23
2018-09-20T11:32:57.214Z,1.10
2018-09-20T11:35:26.172Z,1.33
2018-09-20T11:37:55.230Z,1.50
2018-09-20T11:40:24.254Z,1.10
2018-09-20T11:42:53.226Z,0.83
2018-09-20T11:45:22.160Z,1.40
2018-09-20T11:47:51.174Z,0.93
2018-09-20T11:50:20.191Z,1.20
2018-09-20T11:52:49.186Z,0.80
2018-09-20T11:55:18.114Z,1.17
2018-09-20T11:57:47.371Z,1.00
2018-09-20T12:00:20.189Z,1.00
2018-09-20T12:02:49.785Z,1.13
2018-09-20T12:05:18.724Z,1.43
2018-09-20T12:07:47.754Z,1.10
2018-09-20T12:10:17.206Z,0.77
2018-09-20T12:12:46.174Z,0.80
2018-09-20T12:15:15.215Z,0.80
2018-09-20T12:17:44.258Z,0.90
2018-09-20T12:20:13.228Z,1.00
2018-09-20T12:22:42.213Z,0.90
2018-09-20T12:25:11.141Z,1.30
2018-09-20T12:27:40.146Z,0.97
2018-09-20T12:30:09.161Z,1.13
2018-09-20T12:32:38.168Z,0.77
2018-09-20T12:35:07.122Z,1.20
2018-09-20T12:37:36.681Z,0.87
2018-09-20T12:40:06.710Z,1.60
2018-09-20T12:42:35.690Z,1.20
2018-09-20T12:45:04.636Z,0.63
2018-09-20T12:47:34.111Z,1.13
2018-09-20T12:50:03.066Z,0.97
2018-09-20T12:52:32.062Z,0.90
2018-09-20T12:55:01.017Z,1.17
2018-09-20T12:57:30.028Z,1.40
2018-09-20T12:59:58.953Z,1.00
2018-09-20T13:02:27.937Z,0.93
2018-09-20T13:04:56.915Z,0.90
2018-09-20T13:07:25.947Z,1.70
2018-09-20T13:09:54.906Z,1.33
2018-09-20T13:12:23.894Z,0.97
2018-09-20T13:14:52.854Z,0.90
2018-09-20T13:17:21.857Z,1.10
2018-09-20T13:19:50.840Z,1.33
2018-09-20T13:22:19.846Z,1.10
2018-09-20T13:24:48.778Z,1.47
2018-09-20T13:27:17.710Z,1.43
2018-09-20T13:29:46.711Z,1.27
2018-09-20T13:32:15.696Z,1.40
2018-09-20T13:34:44.657Z,1.60
2018-09-20T13:37:13.667Z,1.40
2018-09-20T13:39:42.638Z,1.27
2018-09-20T13:42:11.625Z,1.17
2018-09-20T13:44:40.649Z,1.10
2018-09-20T13:47:09.582Z,1.30
2018-09-20T13:49:38.566Z,1.17
2018-09-20T13:52:08.035Z,1.33
2018-09-20T13:54:36.997Z,1.77
2018-09-20T13:57:06.011Z,1.73
2018-09-20T13:59:35.026Z,1.37
2018-09-20T14:02:03.966Z,0.93
2018-09-20T14:04:32.954Z,1.30
2018-09-20T14:07:01.905Z,1.43
2018-09-20T14:09:30.900Z,1.50
2018-09-20T14:11:59.868Z,1.30
2018-09-20T14:14:28.867Z,1.37
2018-09-20T14:16:57.793Z,1.60
2018-09-20T14:19:26.775Z,1.57
2018-09-20T14:21:55.721Z,1.40
2018-09-20T14:24:24.645Z,1.77
2018-09-20T14:26:53.641Z,1.80
2018-09-20T14:29:22.642Z,1.50
2018-09-20T14:31:51.651Z,1.87
2018-09-20T14:34:20.624Z,1.60
2018-09-20T14:36:49.834Z,1.20
2018-09-20T14:39:18.795Z,1.97
2018-09-20T14:41:47.807Z,1.73
2018-09-20T14:44:16.741Z,1.47
2018-09-20T14:46:45.745Z,1.67
2018-09-20T14:49:14.701Z,1.70
2018-09-20T14:51:43.692Z,1.20
2018-09-20T14:54:12.715Z,1.50
2018-09-20T14:56:41.693Z,1.30
2018-09-20T14:59:10.641Z,1.20
2018-09-20T15:01:39.616Z,1.40
2018-09-20T15:04:08.550Z,1.00
2018-09-20T15:06:37.556Z,1.60
2018-09-20T15:09:09.954Z,1.20
2018-09-20T15:11:38.947Z,1.23
2018-09-20T15:14:07.909Z,1.00
2018-09-20T15:16:36.898Z,1.87
2018-09-20T15:19:05.941Z,1.40
2018-09-20T15:21:34.904Z,1.40
2018-09-20T15:24:04.087Z,1.80
2018-09-20T15:26:33.094Z,1.30
2018-09-20T15:29:02.038Z,1.50
2018-09-20T15:31:31.030Z,1.27
2018-09-20T15:33:59.956Z,1.67
2018-09-20T15:36:28.954Z,1.37
2018-09-20T15:38:57.845Z,1.23
2018-09-20T15:41:26.788Z,0.90
2018-09-20T15:43:55.755Z,1.43
2018-09-20T15:46:24.727Z,1.40
2018-09-20T15:48:53.662Z,1.23
2018-09-20T15:51:22.607Z,1.47
2018-09-20T15:53:51.526Z,1.10
2018-09-20T15:56:20.514Z,1.70
2018-09-20T15:58:49.433Z,1.63
2018-09-20T16:01:18.377Z,1.50
2018-09-20T16:03:47.285Z,1.50
2018-09-20T16:06:16.270Z,1.20
2018-09-20T16:08:45.162Z,1.10
2018-09-20T16:11:14.093Z,1.80
2018-09-20T16:13:43.081Z,1.30
2018-09-20T16:16:12.036Z,1.40
2018-09-20T16:18:40.949Z,1.30
2018-09-20T16:21:09.945Z,1.30
2018-09-20T16:23:38.852Z,1.30
2018-09-20T16:26:08.034Z,1.40
2018-09-20T16:28:50.677Z,1.80
2018-09-20T16:31:34.128Z,1.43
2018-09-20T16:38:27.300Z,1.30
2018-09-20T16:40:57.977Z,1.77
2018-09-20T16:43:26.946Z,2.00
2018-09-20T16:45:55.892Z,1.30
2018-09-20T16:48:24.862Z,1.30
2018-09-20T16:50:53.782Z,1.57
2018-09-20T16:53:22.930Z,1.60
2018-09-20T16:55:51.765Z,1.33
2018-09-20T16:58:21.158Z,1.90
2018-09-20T17:00:50.105Z,1.10
2018-09-20T17:03:19.106Z,1.13
2018-09-20T17:05:48.360Z,1.37
2018-09-20T17:08:17.738Z,1.30
2018-09-20T17:10:46.667Z,1.70
2018-09-20T17:13:16.163Z,1.60
2018-09-20T17:15:45.061Z,1.40
2018-09-20T17:18:14.022Z,1.40
2018-09-20T17:20:42.946Z,1.10
2018-09-20T17:23:11.910Z,1.50
2018-09-20T17:25:40.846Z,0.87
2018-09-20T17:28:09.817Z,1.50
2018-09-20T17:30:38.736Z,1.13
2018-09-20T17:33:07.736Z,1.70
2018-09-20T17:35:36.881Z,1.43
2018-09-20T17:38:06.421Z,1.80
2018-09-20T17:40:36.014Z,2.00
2018-09-20T17:43:07.600Z,1.63
2018-09-20T17:45:36.546Z,2.00
2018-09-20T17:48:05.532Z,1.57
2018-09-20T17:50:34.794Z,1.27
2018-09-20T17:53:03.998Z,1.40
2018-09-20T17:55:33.256Z,1.80
2018-09-20T17:58:02.638Z,1.80
2018-09-20T18:00:31.525Z,1.30
2018-09-20T18:03:00.527Z,1.50
2018-09-20T18:05:29.482Z,1.30
2018-09-20T18:07:58.378Z,1.60
2018-09-20T18:10:27.337Z,2.30
2018-09-20T18:12:56.233Z,1.77
2018-09-20T18:15:25.174Z,1.63
2018-09-20T18:17:54.252Z,1.60
2018-09-20T18:20:23.226Z,1.47
2018-09-20T18:22:52.134Z,1.60
2018-09-20T18:25:21.085Z,1.87
2018-09-20T18:27:49.964Z,1.93
2018-09-20T18:30:18.930Z,1.97
2018-09-20T18:32:47.853Z,2.10
2018-09-20T18:35:16.882Z,1.67
2018-09-20T18:37:46.115Z,1.70
2018-09-20T18:40:15.156Z,1.70
2018-09-20T18:42:44.050Z,1.70
2018-09-20T18:45:13.026Z,2.00
2018-09-20T18:47:41.955Z,2.03
2018-09-20T18:50:11.076Z,2.40
2018-09-20T18:52:39.967Z,1.53
2018-09-20T18:55:08.958Z,2.10
2018-09-20T18:57:37.911Z,1.57
2018-09-20T19:00:07.007Z,1.60
2018-09-20T19:02:35.928Z,1.87
2018-09-20T19:05:05.349Z,1.47
2018-09-20T19:07:34.271Z,1.07
2018-09-20T19:10:03.237Z,1.63
2018-09-20T19:12:32.206Z,1.57
2018-09-20T19:15:01.185Z,1.50
2018-09-20T19:17:30.158Z,1.87
2018-09-20T19:19:59.146Z,2.10
2018-09-20T19:22:28.086Z,1.83
2018-09-20T19:24:57.066Z,1.67
2018-09-20T19:27:26.066Z,1.73
2018-09-20T19:29:55.010Z,1.30
2018-09-20T19:32:23.938Z,1.73
2018-09-20T19:34:52.833Z,1.77
2018-09-20T19:37:21.757Z,1.47
2018-09-20T19:39:50.801Z,1.63
2018-09-20T19:42:19.807Z,1.70
2018-09-20T19:44:48.714Z,1.57
2018-09-20T19:47:17.703Z,1.70
2018-09-20T19:49:46.639Z,1.67
2018-09-20T19:52:15.626Z,1.73
2018-09-20T19:54:44.559Z,1.20
2018-09-20T19:57:13.506Z,1.60
2018-09-20T19:59:42.471Z,1.60
2018-09-20T20:02:11.394Z,1.60
2018-09-20T20:04:40.374Z,1.70
2018-09-20T20:07:09.317Z,1.70
2018-09-20T20:09:38.205Z,2.40
2018-09-20T20:12:07.205Z,2.00
2018-09-20T20:14:36.105Z,1.77
2018-09-20T20:17:05.098Z,1.67
2018-09-20T20:19:34.177Z,1.93
2018-09-20T20:22:02.994Z,1.53
2018-09-20T20:24:32.215Z,1.80
2018-09-20T20:27:01.289Z,2.03
2018-09-20T20:29:30.173Z,1.87
2018-09-20T20:31:59.149Z,2.03
2018-09-20T20:34:28.094Z,1.70
2018-09-20T20:36:57.085Z,1.80
2018-09-20T20:39:26.002Z,1.60
2018-09-20T20:41:55.053Z,1.93
2018-09-20T20:44:24.035Z,1.60
2018-09-20T20:46:53.085Z,1.53
2018-09-20T20:49:21.995Z,2.10
2018-09-20T20:51:51.008Z,1.93
2018-09-20T20:54:20.026Z,1.90
2018-09-20T20:56:49.077Z,2.13
2018-09-20T20:59:18.020Z,1.70
2018-09-20T21:01:47.014Z,1.90
2018-09-20T21:04:15.946Z,1.63
2018-09-20T21:06:44.902Z,1.80
2018-09-20T21:09:13.853Z,1.87
2018-09-20T21:11:42.810Z,1.40
2018-09-20T21:14:11.771Z,2.30
2018-09-20T21:16:40.771Z,1.97
2018-09-20T21:19:09.669Z,1.77
2018-09-20T21:21:38.646Z,2.03
2018-09-20T21:24:07.627Z,2.50
2018-09-20T21:26:36.701Z,1.57
2018-09-20T21:29:05.853Z,1.97
2018-09-20T21:31:34.806Z,1.97
2018-09-20T21:34:03.755Z,1.90
2018-09-20T21:36:32.772Z,2.10
2018-09-20T21:39:01.766Z,1.37
2018-09-20T21:41:30.710Z,1.80
2018-09-20T21:43:59.755Z,2.30
2018-09-20T21:46:28.665Z,2.30
2018-09-20T21:48:57.617Z,2.83
2018-09-20T21:51:26.547Z,2.40
2018-09-20T21:53:55.553Z,2.00
2018-09-20T21:56:24.458Z,1.90
2018-09-20T21:58:53.414Z,1.83
2018-09-20T22:01:22.353Z,2.03
2018-09-20T22:03:51.368Z,1.90
2018-09-20T22:06:20.293Z,2.37
2018-09-20T22:08:49.318Z,2.20
2018-09-20T22:11:18.224Z,2.23
2018-09-20T22:13:47.195Z,1.83
2018-09-20T22:16:16.104Z,1.97
2018-09-20T22:18:45.145Z,1.70
2018-09-20T22:21:14.079Z,1.87
2018-09-20T22:23:43.042Z,1.80
2018-09-20T22:26:11.997Z,2.30
2018-09-20T22:28:40.951Z,1.77
2018-09-20T22:31:09.846Z,1.73
2018-09-20T22:33:38.760Z,2.10
2018-09-20T22:36:07.636Z,2.20
2018-09-20T22:38:36.560Z,2.17
2018-09-20T22:41:05.445Z,2.00
2018-09-20T22:43:34.381Z,2.07
2018-09-20T22:46:03.266Z,2.30
2018-09-20T22:48:32.195Z,2.17
2018-09-20T22:51:01.082Z,2.10
2018-09-20T22:53:30.034Z,1.90
2018-09-20T22:55:58.926Z,2.13
2018-09-20T22:58:27.914Z,2.33
2018-09-20T23:00:56.835Z,2.00
2018-09-20T23:03:25.786Z,1.93
2018-09-20T23:05:54.693Z,2.20
2018-09-20T23:08:23.605Z,1.73
2018-09-20T23:10:52.502Z,1.50
2018-09-20T23:13:21.435Z,2.33
2018-09-20T23:15:50.386Z,2.43
2018-09-20T23:18:19.394Z,2.73
2018-09-20T23:20:48.366Z,2.10
2018-09-20T23:23:17.290Z,2.40
2018-09-20T23:25:46.174Z,2.20
2018-09-20T23:28:15.090Z,1.47
2018-09-20T23:30:43.984Z,1.60
2018-09-20T23:33:12.969Z,1.67
2018-09-20T23:35:41.997Z,2.40
2018-09-20T23:38:10.919Z,2.43
2018-09-20T23:40:39.886Z,2.10
2018-09-20T23:43:08.817Z,1.90
2018-09-20T23:45:37.781Z,2.20
2018-09-20T23:48:06.717Z,2.27
2018-09-20T23:50:35.705Z,2.40
2018-09-20T23:53:04.598Z,2.70
2018-09-20T23:55:33.561Z,2.07
2018-09-20T23:58:02.457Z,2.13
